Allison, NC

5:22 AM EDT on March 29, 2015 (GMT -0400)
Close to downtown | | Change Station
CLOSE
Current Station
Personal Weather Station
Location: Reidsville, NC
Elevation: 830 ft
Nearby Weather Stations

Elev 830 ft 36.36 °N, 79.67 °W | Updated 13 seconds ago

Clear
Clear
27.5 °F
Feels Like 28 °F
N
0.0
Wind Variable Wind from North
Gusts 2.2 mph

Today
High -- | Low -- °F
--% Chance of Precip.
Yesterday
High -- | Low -- °F
Precip. -- in
7:09 AM 7:37 PM
Waxing Gibbous, 70% visible
Pressure 30.34 in
Visibility 10.0 miles
Clouds Clear
Windchill 28 °F
Dew Point 6 °F
Humidity 39%
Rainfall 0.00 in
Snow Depth Not available.
UV 0 out of 12
Pollen 9.00 out of 12
Air Quality Not available.
Flu Activity Not available.
METAR KSIF 290855Z AUTO 00000KT 10SM CLR M03/M13 A3034 RMK AO2 T10321128

More Conditions Fewer Conditions

Pressure 30.34 in
Visibility 10.0 miles
Clouds Clear
Windchill 28 °F
Dew Point 6 °F
Humidity 39%
Rainfall 0.00 in
Snow Depth Not available.
UV 0 out of 12
Pollen 9.00 out of 12
Air Quality Not available.
Flu Activity Not available.
METAR KSIF 290855Z AUTO 00000KT 10SM CLR M03/M13 A3034 RMK AO2 T10321128

More Conditions Fewer Conditions

10-Day Weather Forecast

Almanac

Astronomy

Mar. 29, 2015 Rise Set
Actual Time
Civil Twilight
Nautical Twilight
Astronomical Twilight
Moon
Length of Visible Light
Length of Day
Tomorrow will be .
, % of the Moon is Illuminated

Today's Extremes

State Highs State Lows

Community

WunderPhotos

Upload Photos

1,809,187 photos uploaded!

WunderBlogs® & News

Nearby

Air Quality

  Air Quality AQ Index Pollutant
Not available.

Snow Depth

Station Depth Elevation

Earthquake Activity

City Distance Mag. Time & Date
Minimum magnitude displayed is 2.5.

Coastal Water Temperatures

Place Temperature

Stations

Nearby Weather Stations

Station Location Temp. Windchill Dew Point Humidity Wind Precip. Elev Updated Type